sensor_id;sensor_type;location;lat;lon;timestamp;pressure;altitude;pressure_sealevel;temperature;humidity
38612;BME280;24368;52.156;20.788;2022-10-17T00:02:56;101350.19;;;14.41;100.00
38612;BME280;24368;52.156;20.788;2022-10-17T00:07:58;101351.23;;;14.44;100.00
38612;BME280;24368;52.156;20.788;2022-10-17T00:12:59;101360.42;;;14.41;100.00
38612;BME280;24368;52.156;20.788;2022-10-17T00:18:02;101365.48;;;14.46;100.00
38612;BME280;24368;52.156;20.788;2022-10-17T00:23:03;101358.98;;;14.47;100.00
38612;BME280;24368;52.156;20.788;2022-10-17T00:28:08;101348.80;;;14.48;100.00
38612;BME280;24368;52.156;20.788;2022-10-17T00:33:09;101349.84;;;14.44;100.00
38612;BME280;24368;52.156;20.788;2022-10-17T00:38:11;101367.34;;;14.28;100.00
38612;BME280;24368;52.156;20.788;2022-10-17T00:43:15;101365.80;;;14.13;100.00
38612;BME280;24368;52.156;20.788;2022-10-17T00:48:18;101366.30;;;14.15;100.00
38612;BME280;24368;52.156;20.788;2022-10-17T00:53:20;101371.33;;;14.17;100.00
38612;BME280;24368;52.156;20.788;2022-10-17T00:58:21;101369.45;;;14.19;100.00
38612;BME280;24368;52.156;20.788;2022-10-17T01:03:23;101369.96;;;14.10;100.00
38612;BME280;24368;52.156;20.788;2022-10-17T01:08:25;101373.39;;;14.02;100.00
38612;BME280;24368;52.156;20.788;2022-10-17T01:13:33;101375.65;;;14.10;100.00
38612;BME280;24368;52.156;20.788;2022-10-17T01:18:55;101374.30;;;14.22;100.00
38612;BME280;24368;52.156;20.788;2022-10-17T01:39:45;101353.16;;;14.19;100.00
38612;BME280;24368;52.156;20.788;2022-10-17T01:44:56;101354.09;;;14.22;100.00
38612;BME280;24368;52.156;20.788;2022-10-17T01:50:03;101362.76;;;14.25;100.00
38612;BME280;24368;52.156;20.788;2022-10-17T01:55:17;101374.73;;;14.26;100.00
38612;BME280;24368;52.156;20.788;2022-10-17T02:00:22;101376.10;;;14.09;100.00
38612;BME280;24368;52.156;20.788;2022-10-17T02:05:35;101372.60;;;13.90;100.00
38612;BME280;24368;52.156;20.788;2022-10-17T02:27:10;101374.16;;;13.75;100.00
38612;BME280;24368;52.156;20.788;2022-10-17T02:32:20;101382.64;;;13.87;100.00
38612;BME280;24368;52.156;20.788;2022-10-17T02:37:26;101391.52;;;13.89;100.00
38612;BME280;24368;52.156;20.788;2022-10-17T02:42:30;101400.11;;;13.91;100.00
38612;BME280;24368;52.156;20.788;2022-10-17T02:52:52;101406.08;;;13.58;100.00
38612;BME280;24368;52.156;20.788;2022-10-17T02:57:59;101413.04;;;13.57;100.00
38612;BME280;24368;52.156;20.788;2022-10-17T03:03:35;101422.17;;;13.60;100.00
38612;BME280;24368;52.156;20.788;2022-10-17T03:08:37;101443.79;;;13.60;100.00
38612;BME280;24368;52.156;20.788;2022-10-17T03:13:38;101450.20;;;13.65;100.00
38612;BME280;24368;52.156;20.788;2022-10-17T03:18:40;101449.23;;;13.53;100.00
38612;BME280;24368;52.156;20.788;2022-10-17T03:23:41;101456.50;;;13.39;100.00
38612;BME280;24368;52.156;20.788;2022-10-17T03:28:42;101453.18;;;13.26;100.00
38612;BME280;24368;52.156;20.788;2022-10-17T03:33:44;101449.84;;;13.30;100.00
38612;BME280;24368;52.156;20.788;2022-10-17T03:38:46;101440.05;;;13.45;100.00
38612;BME280;24368;52.156;20.788;2022-10-17T03:43:48;101442.73;;;13.48;100.00
38612;BME280;24368;52.156;20.788;2022-10-17T03:48:50;101441.64;;;13.45;100.00
38612;BME280;24368;52.156;20.788;2022-10-17T03:53:51;101437.23;;;13.48;100.00
38612;BME280;24368;52.156;20.788;2022-10-17T03:58:54;101438.52;;;13.52;100.00
38612;BME280;24368;52.156;20.788;2022-10-17T04:03:56;101450.77;;;13.52;100.00
38612;BME280;24368;52.156;20.788;2022-10-17T04:08:58;101452.48;;;13.48;100.00
38612;BME280;24368;52.156;20.788;2022-10-17T04:14:00;101453.73;;;13.48;100.00
38612;BME280;24368;52.156;20.788;2022-10-17T04:19:02;101466.91;;;13.43;100.00
38612;BME280;24368;52.156;20.788;2022-10-17T04:24:04;101479.98;;;13.47;100.00
38612;BME280;24368;52.156;20.788;2022-10-17T04:29:06;101475.64;;;13.51;100.00
38612;BME280;24368;52.156;20.788;2022-10-17T04:34:07;101481.71;;;13.50;100.00
38612;BME280;24368;52.156;20.788;2022-10-17T04:39:09;101471.42;;;13.28;100.00
38612;BME280;24368;52.156;20.788;2022-10-17T04:44:11;101468.31;;;13.25;100.00
38612;BME280;24368;52.156;20.788;2022-10-17T04:49:13;101471.67;;;13.27;100.00
38612;BME280;24368;52.156;20.788;2022-10-17T04:54:14;101480.95;;;13.22;100.00
38612;BME280;24368;52.156;20.788;2022-10-17T04:59:16;101483.34;;;13.15;100.00
38612;BME280;24368;52.156;20.788;2022-10-17T05:04:18;101491.45;;;13.14;100.00
38612;BME280;24368;52.156;20.788;2022-10-17T05:09:19;101501.08;;;13.17;100.00
38612;BME280;24368;52.156;20.788;2022-10-17T05:14:21;101510.10;;;13.21;100.00
38612;BME280;24368;52.156;20.788;2022-10-17T05:19:22;101515.02;;;13.15;100.00
38612;BME280;24368;52.156;20.788;2022-10-17T05:24:24;101515.48;;;13.14;100.00
38612;BME280;24368;52.156;20.788;2022-10-17T05:29:25;101513.45;;;13.19;100.00
38612;BME280;24368;52.156;20.788;2022-10-17T05:34:27;101520.02;;;13.13;100.00
38612;BME280;24368;52.156;20.788;2022-10-17T05:39:28;101532.55;;;13.10;100.00
38612;BME280;24368;52.156;20.788;2022-10-17T05:44:30;101548.09;;;13.10;100.00
38612;BME280;24368;52.156;20.788;2022-10-17T05:49:31;101560.02;;;13.09;100.00
38612;BME280;24368;52.156;20.788;2022-10-17T05:54:33;101553.98;;;13.11;100.00
38612;BME280;24368;52.156;20.788;2022-10-17T05:59:35;101545.79;;;13.19;100.00
38612;BME280;24368;52.156;20.788;2022-10-17T06:04:36;101534.52;;;13.21;100.00
38612;BME280;24368;52.156;20.788;2022-10-17T06:09:38;101547.15;;;13.20;100.00
38612;BME280;24368;52.156;20.788;2022-10-17T06:14:40;101563.21;;;13.22;100.00
38612;BME280;24368;52.156;20.788;2022-10-17T06:19:41;101573.52;;;13.26;100.00
38612;BME280;24368;52.156;20.788;2022-10-17T06:24:44;101580.91;;;13.29;100.00
38612;BME280;24368;52.156;20.788;2022-10-17T06:29:47;101580.09;;;13.37;100.00
38612;BME280;24368;52.156;20.788;2022-10-17T06:34:48;101583.22;;;13.51;100.00
38612;BME280;24368;52.156;20.788;2022-10-17T06:39:50;101589.61;;;13.55;100.00
38612;BME280;24368;52.156;20.788;2022-10-17T06:44:52;101604.38;;;13.62;100.00
38612;BME280;24368;52.156;20.788;2022-10-17T06:49:53;101609.42;;;13.63;100.00
38612;BME280;24368;52.156;20.788;2022-10-17T06:54:55;101614.17;;;13.65;100.00
38612;BME280;24368;52.156;20.788;2022-10-17T06:59:56;101607.56;;;13.69;100.00
38612;BME280;24368;52.156;20.788;2022-10-17T07:04:58;101607.55;;;13.79;100.00
38612;BME280;24368;52.156;20.788;2022-10-17T07:10:00;101608.04;;;13.91;100.00
38612;BME280;24368;52.156;20.788;2022-10-17T07:15:03;101619.63;;;14.03;100.00
38612;BME280;24368;52.156;20.788;2022-10-17T07:20:06;101622.42;;;14.11;100.00
38612;BME280;24368;52.156;20.788;2022-10-17T07:25:09;101620.90;;;14.21;100.00
38612;BME280;24368;52.156;20.788;2022-10-17T07:30:10;101614.18;;;14.40;100.00
38612;BME280;24368;52.156;20.788;2022-10-17T07:35:13;101604.92;;;14.59;100.00
38612;BME280;24368;52.156;20.788;2022-10-17T07:40:15;101601.21;;;14.78;100.00
38612;BME280;24368;52.156;20.788;2022-10-17T07:45:17;101613.95;;;14.95;100.00
38612;BME280;24368;52.156;20.788;2022-10-17T07:50:19;101621.79;;;15.00;100.00
38612;BME280;24368;52.156;20.788;2022-10-17T07:55:21;101634.32;;;15.10;100.00
38612;BME280;24368;52.156;20.788;2022-10-17T08:00:22;101639.48;;;15.24;100.00
38612;BME280;24368;52.156;20.788;2022-10-17T08:05:24;101645.74;;;15.36;100.00
38612;BME280;24368;52.156;20.788;2022-10-17T08:10:25;101647.48;;;15.57;100.00
38612;BME280;24368;52.156;20.788;2022-10-17T08:15:29;101643.79;;;15.71;100.00
38612;BME280;24368;52.156;20.788;2022-10-17T08:20:32;101650.98;;;15.81;100.00
38612;BME280;24368;52.156;20.788;2022-10-17T08:25:33;101658.36;;;15.82;99.92
38612;BME280;24368;52.156;20.788;2022-10-17T08:30:35;101658.31;;;15.77;100.00
38612;BME280;24368;52.156;20.788;2022-10-17T08:35:37;101655.42;;;15.77;100.00
38612;BME280;24368;52.156;20.788;2022-10-17T08:40:39;101653.52;;;15.87;99.51
38612;BME280;24368;52.156;20.788;2022-10-17T08:45:56;101647.51;;;16.06;98.49
38612;BME280;24368;52.156;20.788;2022-10-17T08:51:14;101649.94;;;16.22;97.58
38612;BME280;24368;52.156;20.788;2022-10-17T08:56:24;101646.63;;;16.30;97.40
38612;BME280;24368;52.156;20.788;2022-10-17T09:01:42;101643.68;;;16.43;96.96
38612;BME280;24368;52.156;20.788;2022-10-17T09:06:56;101635.95;;;16.62;95.37
38612;BME280;24368;52.156;20.788;2022-10-17T09:17:50;101639.99;;;16.93;93.74
38612;BME280;24368;52.156;20.788;2022-10-17T09:23:01;101637.75;;;17.06;92.54
38612;BME280;24368;52.156;20.788;2022-10-17T09:33:27;101626.73;;;17.27;91.38
38612;BME280;24368;52.156;20.788;2022-10-17T09:38:41;101628.78;;;17.26;91.04
38612;BME280;24368;52.156;20.788;2022-10-17T09:43:43;101627.34;;;17.46;90.22
38612;BME280;24368;52.156;20.788;2022-10-17T09:48:51;101622.45;;;17.64;88.20
38612;BME280;24368;52.156;20.788;2022-10-17T09:54:02;101618.73;;;17.79;86.69
38612;BME280;24368;52.156;20.788;2022-10-17T09:59:04;101613.54;;;17.87;85.82
38612;BME280;24368;52.156;20.788;2022-10-17T10:04:13;101610.23;;;17.98;84.68
38612;BME280;24368;52.156;20.788;2022-10-17T10:09:24;101603.95;;;18.18;85.85
38612;BME280;24368;52.156;20.788;2022-10-17T10:14:34;101601.98;;;18.54;84.04
38612;BME280;24368;52.156;20.788;2022-10-17T10:19:37;101606.62;;;18.76;83.53
38612;BME280;24368;52.156;20.788;2022-10-17T10:24:39;101602.55;;;18.85;81.73
38612;BME280;24368;52.156;20.788;2022-10-17T10:29:47;101600.13;;;18.86;80.96
38612;BME280;24368;52.156;20.788;2022-10-17T10:35:17;101604.48;;;19.01;79.54
38612;BME280;24368;52.156;20.788;2022-10-17T10:40:20;101602.17;;;19.13;79.13
38612;BME280;24368;52.156;20.788;2022-10-17T10:45:27;101593.24;;;19.21;79.21
38612;BME280;24368;52.156;20.788;2022-10-17T10:55:45;101585.30;;;19.76;76.83
38612;BME280;24368;52.156;20.788;2022-10-17T11:00:48;101582.95;;;19.98;76.75
38612;BME280;24368;52.156;20.788;2022-10-17T11:05:59;101588.46;;;20.35;74.51
38612;BME280;24368;52.156;20.788;2022-10-17T11:11:14;101587.64;;;20.92;71.08
38612;BME280;24368;52.156;20.788;2022-10-17T11:26:48;101574.98;;;27.12;49.33
38612;BME280;24368;52.156;20.788;2022-10-17T11:31:51;101576.27;;;26.58;49.65
38612;BME280;24368;52.156;20.788;2022-10-17T11:37:29;101574.09;;;26.09;50.82
38612;BME280;24368;52.156;20.788;2022-10-17T11:42:37;101576.20;;;24.20;55.81
38612;BME280;24368;52.156;20.788;2022-10-17T11:47:50;101575.77;;;23.21;60.49
38612;BME280;24368;52.156;20.788;2022-10-17T11:53:25;101581.19;;;22.66;62.14
38612;BME280;24368;52.156;20.788;2022-10-17T11:58:53;101582.66;;;22.02;64.52
38612;BME280;24368;52.156;20.788;2022-10-17T12:30:24;101574.19;;;21.12;68.67
38612;BME280;24368;52.156;20.788;2022-10-17T12:35:29;101573.31;;;21.43;68.00
38612;BME280;24368;52.156;20.788;2022-10-17T12:45:53;101566.10;;;23.60;60.92
38612;BME280;24368;52.156;20.788;2022-10-17T12:51:05;101559.58;;;27.49;49.38
38612;BME280;24368;52.156;20.788;2022-10-17T12:56:09;101557.35;;;28.20;46.51
38612;BME280;24368;52.156;20.788;2022-10-17T13:01:17;101549.46;;;28.00;47.48
38612;BME280;24368;52.156;20.788;2022-10-17T13:06:28;101553.94;;;27.38;47.85
38612;BME280;24368;52.156;20.788;2022-10-17T13:11:33;101552.93;;;24.51;55.58
38612;BME280;24368;52.156;20.788;2022-10-17T13:21:59;101546.63;;;21.92;65.36
38612;BME280;24368;52.156;20.788;2022-10-17T13:27:02;101541.67;;;21.53;67.03
38612;BME280;24368;52.156;20.788;2022-10-17T13:32:04;101535.00;;;21.38;68.27
38612;BME280;24368;52.156;20.788;2022-10-17T13:37:10;101538.38;;;21.18;69.20
38612;BME280;24368;52.156;20.788;2022-10-17T13:42:21;101533.15;;;20.87;70.57
38612;BME280;24368;52.156;20.788;2022-10-17T13:47:27;101526.21;;;20.78;71.63
38612;BME280;24368;52.156;20.788;2022-10-17T13:52:29;101524.23;;;20.76;72.01
38612;BME280;24368;52.156;20.788;2022-10-17T13:57:31;101526.64;;;21.08;71.39
38612;BME280;24368;52.156;20.788;2022-10-17T14:02:33;101523.99;;;21.38;69.93
38612;BME280;24368;52.156;20.788;2022-10-17T14:07:56;101515.13;;;21.12;71.17
38612;BME280;24368;52.156;20.788;2022-10-17T14:13:00;101513.41;;;20.84;72.34
38612;BME280;24368;52.156;20.788;2022-10-17T14:18:05;101514.04;;;20.63;73.17
38612;BME280;24368;52.156;20.788;2022-10-17T14:23:35;101510.13;;;20.49;74.07
38612;BME280;24368;52.156;20.788;2022-10-17T14:28:38;101514.39;;;20.31;75.10
38612;BME280;24368;52.156;20.788;2022-10-17T14:33:45;101507.46;;;20.18;76.15
38612;BME280;24368;52.156;20.788;2022-10-17T14:38:50;101507.25;;;20.07;76.96
38612;BME280;24368;52.156;20.788;2022-10-17T14:43:54;101507.82;;;20.00;77.51
38612;BME280;24368;52.156;20.788;2022-10-17T14:49:13;101505.68;;;19.91;77.88
38612;BME280;24368;52.156;20.788;2022-10-17T14:54:26;101507.95;;;19.81;78.39
38612;BME280;24368;52.156;20.788;2022-10-17T14:59:30;101514.77;;;19.72;78.89
38612;BME280;24368;52.156;20.788;2022-10-17T15:04:31;101509.61;;;19.63;79.16
38612;BME280;24368;52.156;20.788;2022-10-17T15:09:33;101505.70;;;19.59;79.48
38612;BME280;24368;52.156;20.788;2022-10-17T15:14:34;101509.30;;;19.58;79.76
38612;BME280;24368;52.156;20.788;2022-10-17T15:19:36;101506.61;;;19.49;80.69
38612;BME280;24368;52.156;20.788;2022-10-17T15:24:38;101507.10;;;19.45;80.97
38612;BME280;24368;52.156;20.788;2022-10-17T15:29:40;101504.12;;;19.39;81.50
38612;BME280;24368;52.156;20.788;2022-10-17T15:34:42;101504.40;;;19.30;81.87
38612;BME280;24368;52.156;20.788;2022-10-17T15:39:43;101506.25;;;19.22;82.41
38612;BME280;24368;52.156;20.788;2022-10-17T15:44:47;101500.41;;;19.12;82.84
38612;BME280;24368;52.156;20.788;2022-10-17T15:49:50;101501.64;;;19.04;83.20
38612;BME280;24368;52.156;20.788;2022-10-17T15:54:53;101495.73;;;18.95;83.68
38612;BME280;24368;52.156;20.788;2022-10-17T15:59:56;101498.02;;;18.88;84.05
38612;BME280;24368;52.156;20.788;2022-10-17T16:04:59;101496.94;;;18.78;84.68
38612;BME280;24368;52.156;20.788;2022-10-17T16:10:01;101493.72;;;18.68;85.45
38612;BME280;24368;52.156;20.788;2022-10-17T16:15:02;101488.66;;;18.60;85.71
38612;BME280;24368;52.156;20.788;2022-10-17T16:20:05;101490.67;;;18.57;85.89
38612;BME280;24368;52.156;20.788;2022-10-17T16:30:21;101485.02;;;18.41;87.05
38612;BME280;24368;52.156;20.788;2022-10-17T16:35:26;101477.92;;;18.38;87.28
38612;BME280;24368;52.156;20.788;2022-10-17T16:40:28;101469.79;;;18.29;87.76
38612;BME280;24368;52.156;20.788;2022-10-17T16:45:30;101468.11;;;18.18;88.44
38612;BME280;24368;52.156;20.788;2022-10-17T16:50:31;101475.67;;;18.06;89.03
38612;BME280;24368;52.156;20.788;2022-10-17T16:55:36;101472.31;;;17.97;89.56
38612;BME280;24368;52.156;20.788;2022-10-17T17:00:38;101471.98;;;17.88;90.07
38612;BME280;24368;52.156;20.788;2022-10-17T17:05:39;101470.77;;;17.83;90.35
38612;BME280;24368;52.156;20.788;2022-10-17T17:10:45;101471.23;;;17.76;90.69
38612;BME280;24368;52.156;20.788;2022-10-17T17:15:47;101468.83;;;17.74;90.67
38612;BME280;24368;52.156;20.788;2022-10-17T17:21:00;101470.17;;;17.70;90.91
38612;BME280;24368;52.156;20.788;2022-10-17T17:26:08;101474.39;;;17.67;90.90
38612;BME280;24368;52.156;20.788;2022-10-17T17:31:21;101472.34;;;17.60;91.20
38612;BME280;24368;52.156;20.788;2022-10-17T17:36:29;101477.67;;;17.55;91.29
38612;BME280;24368;52.156;20.788;2022-10-17T17:41:32;101477.19;;;17.47;91.71
38612;BME280;24368;52.156;20.788;2022-10-17T17:46:34;101471.27;;;17.39;91.87
38612;BME280;24368;52.156;20.788;2022-10-17T17:51:36;101472.10;;;17.32;92.06
38612;BME280;24368;52.156;20.788;2022-10-17T17:56:38;101474.85;;;17.26;92.51
38612;BME280;24368;52.156;20.788;2022-10-17T18:01:40;101476.84;;;17.23;92.73
38612;BME280;24368;52.156;20.788;2022-10-17T18:06:42;101469.71;;;17.21;92.47
38612;BME280;24368;52.156;20.788;2022-10-17T18:11:43;101471.36;;;17.14;92.72
38612;BME280;24368;52.156;20.788;2022-10-17T18:16:45;101468.48;;;17.07;93.05
38612;BME280;24368;52.156;20.788;2022-10-17T18:21:46;101470.45;;;17.05;93.05
38612;BME280;24368;52.156;20.788;2022-10-17T18:26:49;101468.74;;;16.98;93.07
38612;BME280;24368;52.156;20.788;2022-10-17T18:31:52;101465.42;;;16.92;93.46
38612;BME280;24368;52.156;20.788;2022-10-17T18:36:54;101464.81;;;16.93;93.46
38612;BME280;24368;52.156;20.788;2022-10-17T18:41:55;101458.94;;;16.95;92.84
38612;BME280;24368;52.156;20.788;2022-10-17T18:46:57;101456.96;;;16.97;92.62
38612;BME280;24368;52.156;20.788;2022-10-17T18:51:59;101454.73;;;16.96;92.41
38612;BME280;24368;52.156;20.788;2022-10-17T18:57:01;101456.94;;;16.88;92.70
38612;BME280;24368;52.156;20.788;2022-10-17T19:02:02;101454.77;;;16.85;92.78
38612;BME280;24368;52.156;20.788;2022-10-17T19:07:04;101457.17;;;16.83;92.92
38612;BME280;24368;52.156;20.788;2022-10-17T19:12:06;101448.77;;;16.82;92.78
38612;BME280;24368;52.156;20.788;2022-10-17T19:17:07;101450.47;;;16.81;92.54
38612;BME280;24368;52.156;20.788;2022-10-17T19:22:09;101455.14;;;16.79;92.62
38612;BME280;24368;52.156;20.788;2022-10-17T19:27:11;101449.85;;;16.74;92.57
38612;BME280;24368;52.156;20.788;2022-10-17T19:32:12;101444.82;;;16.69;92.43
38612;BME280;24368;52.156;20.788;2022-10-17T19:37:14;101438.96;;;16.67;92.19
38612;BME280;24368;52.156;20.788;2022-10-17T19:42:15;101436.39;;;16.68;92.01
38612;BME280;24368;52.156;20.788;2022-10-17T19:47:17;101432.88;;;16.73;91.32
38612;BME280;24368;52.156;20.788;2022-10-17T19:52:19;101433.02;;;16.75;90.98
38612;BME280;24368;52.156;20.788;2022-10-17T19:57:20;101434.23;;;16.73;90.56
38612;BME280;24368;52.156;20.788;2022-10-17T20:02:22;101430.95;;;16.72;90.32
38612;BME280;24368;52.156;20.788;2022-10-17T20:07:23;101424.25;;;16.70;90.29
38612;BME280;24368;52.156;20.788;2022-10-17T20:12:25;101421.87;;;16.67;90.29
38612;BME280;24368;52.156;20.788;2022-10-17T20:17:26;101418.70;;;16.67;90.07
38612;BME280;24368;52.156;20.788;2022-10-17T20:22:28;101416.14;;;16.61;90.12
38612;BME280;24368;52.156;20.788;2022-10-17T20:27:30;101413.67;;;16.58;90.12
38612;BME280;24368;52.156;20.788;2022-10-17T20:32:33;101407.56;;;16.53;90.18
38612;BME280;24368;52.156;20.788;2022-10-17T20:37:36;101403.66;;;16.50;90.14
38612;BME280;24368;52.156;20.788;2022-10-17T20:42:38;101397.43;;;16.45;89.99
38612;BME280;24368;52.156;20.788;2022-10-17T20:47:40;101393.69;;;16.48;89.49
38612;BME280;24368;52.156;20.788;2022-10-17T20:52:41;101390.05;;;16.54;88.91
38612;BME280;24368;52.156;20.788;2022-10-17T20:57:43;101383.55;;;16.60;88.46
38612;BME280;24368;52.156;20.788;2022-10-17T21:02:44;101384.08;;;16.56;88.12
38612;BME280;24368;52.156;20.788;2022-10-17T21:07:47;101382.95;;;16.52;87.99
38612;BME280;24368;52.156;20.788;2022-10-17T21:12:50;101383.75;;;16.52;87.75
38612;BME280;24368;52.156;20.788;2022-10-17T21:17:52;101381.46;;;16.48;87.65
38612;BME280;24368;52.156;20.788;2022-10-17T21:22:53;101382.45;;;16.46;87.50
38612;BME280;24368;52.156;20.788;2022-10-17T21:27:55;101380.65;;;16.42;87.26
38612;BME280;24368;52.156;20.788;2022-10-17T21:32:56;101372.55;;;16.45;86.55
38612;BME280;24368;52.156;20.788;2022-10-17T21:37:58;101368.91;;;16.51;85.87
38612;BME280;24368;52.156;20.788;2022-10-17T21:42:59;101369.98;;;16.49;85.48
38612;BME280;24368;52.156;20.788;2022-10-17T21:48:01;101371.08;;;16.49;84.55
38612;BME280;24368;52.156;20.788;2022-10-17T21:53:02;101363.90;;;16.54;82.93
38612;BME280;24368;52.156;20.788;2022-10-17T21:58:04;101355.86;;;16.61;81.77
38612;BME280;24368;52.156;20.788;2022-10-17T22:03:05;101351.65;;;16.60;81.21
38612;BME280;24368;52.156;20.788;2022-10-17T22:08:08;101349.98;;;16.61;80.58
38612;BME280;24368;52.156;20.788;2022-10-17T22:13:10;101353.95;;;16.70;79.69
38612;BME280;24368;52.156;20.788;2022-10-17T22:18:12;101352.70;;;16.76;79.02
38612;BME280;24368;52.156;20.788;2022-10-17T22:23:13;101350.05;;;16.75;78.85
38612;BME280;24368;52.156;20.788;2022-10-17T22:28:15;101357.65;;;16.75;78.48
38612;BME280;24368;52.156;20.788;2022-10-17T22:33:16;101357.89;;;16.57;79.80
38612;BME280;24368;52.156;20.788;2022-10-17T22:38:18;101353.55;;;16.64;79.01
38612;BME280;24368;52.156;20.788;2022-10-17T22:43:20;101356.19;;;16.61;78.82
38612;BME280;24368;52.156;20.788;2022-10-17T22:48:22;101353.78;;;16.62;78.62
38612;BME280;24368;52.156;20.788;2022-10-17T22:53:25;101355.58;;;16.65;78.11
38612;BME280;24368;52.156;20.788;2022-10-17T22:58:29;101355.30;;;16.56;78.39
38612;BME280;24368;52.156;20.788;2022-10-17T23:03:31;101353.75;;;16.60;78.04
38612;BME280;24368;52.156;20.788;2022-10-17T23:08:33;101352.73;;;16.60;77.72
38612;BME280;24368;52.156;20.788;2022-10-17T23:13:35;101351.85;;;16.58;77.65
38612;BME280;24368;52.156;20.788;2022-10-17T23:18:37;101352.00;;;16.47;78.23
38612;BME280;24368;52.156;20.788;2022-10-17T23:23:39;101353.41;;;16.49;77.87
38612;BME280;24368;52.156;20.788;2022-10-17T23:28:41;101352.43;;;16.40;77.99
38612;BME280;24368;52.156;20.788;2022-10-17T23:33:45;101349.30;;;16.39;77.75
38612;BME280;24368;52.156;20.788;2022-10-17T23:38:47;101351.64;;;16.36;77.61
38612;BME280;24368;52.156;20.788;2022-10-17T23:43:49;101349.89;;;16.30;77.54
38612;BME280;24368;52.156;20.788;2022-10-17T23:48:51;101349.54;;;16.24;77.84
38612;BME280;24368;52.156;20.788;2022-10-17T23:53:53;101348.13;;;16.21;77.90
38612;BME280;24368;52.156;20.788;2022-10-17T23:58:54;101351.11;;;16.15;78.06
